createdAt,value
2024-02-26T00:01:25.597Z,4.80
2024-02-26T00:03:53.577Z,4.07
2024-02-26T00:06:21.485Z,4.32
2024-02-26T00:08:49.172Z,4.30
2024-02-26T00:11:16.809Z,4.82
2024-02-26T00:13:45.812Z,5.03
2024-02-26T00:16:13.388Z,4.43
2024-02-26T00:18:41.035Z,4.10
2024-02-26T00:21:08.757Z,4.40
2024-02-26T00:23:36.345Z,4.63
2024-02-26T00:26:04.790Z,4.22
2024-02-26T00:28:33.209Z,4.45
2024-02-26T00:31:02.117Z,3.60
2024-02-26T00:33:29.787Z,4.30
2024-02-26T00:35:57.516Z,3.67
2024-02-26T00:38:25.130Z,3.78
2024-02-26T00:40:52.924Z,3.88
2024-02-26T00:43:20.488Z,3.70
2024-02-26T00:45:48.260Z,3.58
2024-02-26T00:48:17.310Z,3.65
2024-02-26T00:50:45.027Z,3.75
2024-02-26T00:53:12.768Z,3.67
2024-02-26T00:55:40.343Z,3.42
2024-02-26T00:58:07.886Z,4.07
2024-02-26T01:00:35.529Z,3.80
2024-02-26T01:03:04.489Z,3.25
2024-02-26T01:05:33.411Z,2.97
2024-02-26T01:08:01.130Z,3.42
2024-02-26T01:10:28.757Z,2.70
2024-02-26T01:12:56.289Z,2.13
2024-02-26T01:15:25.039Z,2.50
2024-02-26T01:17:52.833Z,2.95
2024-02-26T01:20:20.389Z,2.22
2024-02-26T01:22:49.301Z,1.60
2024-02-26T01:25:17.452Z,0.70
2024-02-26T01:27:45.320Z,0.88
2024-02-26T01:30:13.210Z,0.90
2024-02-26T01:32:40.965Z,1.10
2024-02-26T01:35:11.333Z,2.42
2024-02-26T01:37:38.991Z,2.53
2024-02-26T01:40:09.176Z,2.58
2024-02-26T01:42:36.710Z,2.38
2024-02-26T01:45:04.745Z,3.08
2024-02-26T01:47:32.748Z,2.47
2024-02-26T01:50:00.333Z,2.40
2024-02-26T01:52:28.372Z,2.13
2024-02-26T01:54:55.924Z,1.75
2024-02-26T01:57:24.904Z,2.08
2024-02-26T01:59:52.536Z,1.17
2024-02-26T02:02:20.240Z,1.23
2024-02-26T02:04:47.923Z,1.10
2024-02-26T02:07:15.524Z,1.20
2024-02-26T02:09:43.161Z,1.88
2024-02-26T02:12:11.543Z,2.33
2024-02-26T02:14:40.630Z,2.08
2024-02-26T02:17:08.267Z,1.88
2024-02-26T02:19:35.874Z,2.30
2024-02-26T02:22:04.827Z,2.50
2024-02-26T02:24:32.377Z,1.70
2024-02-26T02:26:59.904Z,2.13
2024-02-26T02:29:28.662Z,1.70
2024-02-26T02:31:56.341Z,0.98
2024-02-26T02:34:24.113Z,0.43
2024-02-26T02:36:53.581Z,0.60
2024-02-26T02:39:22.722Z,0.70
2024-02-26T02:44:17.764Z,0.40
2024-02-26T02:46:45.320Z,0.38
2024-02-26T02:49:13.046Z,0.60
2024-02-26T02:51:40.640Z,0.30
2024-02-26T02:54:08.173Z,0.80
2024-02-26T02:56:37.406Z,0.50
2024-02-26T03:01:32.299Z,0.70
2024-02-26T03:03:59.839Z,0.60
2024-02-26T03:06:28.898Z,0.60
2024-02-26T03:08:56.609Z,0.80
2024-02-26T03:11:24.213Z,0.47
2024-02-26T03:13:53.074Z,0.60
2024-02-26T03:16:20.716Z,0.65
2024-02-26T03:18:48.414Z,0.50
2024-02-26T03:21:16.029Z,0.57
2024-02-26T03:23:43.627Z,0.55
2024-02-26T03:26:14.815Z,0.50
2024-02-26T03:28:42.457Z,0.50
2024-02-26T03:31:11.662Z,0.43
2024-02-26T03:36:08.572Z,0.40
2024-02-26T03:38:36.158Z,0.40
2024-02-26T03:41:03.672Z,0.68
2024-02-26T03:43:31.218Z,0.55
2024-02-26T03:45:58.775Z,0.50
2024-02-26T03:48:28.052Z,0.50
2024-02-26T03:50:55.791Z,0.32
2024-02-26T03:53:23.328Z,0.60
2024-02-26T03:55:53.069Z,0.70
2024-02-26T03:58:20.646Z,0.50
2024-02-26T04:00:49.192Z,0.50
2024-02-26T04:03:17.006Z,0.57
2024-02-26T04:05:46.135Z,0.50
2024-02-26T04:10:41.590Z,0.63
2024-02-26T04:13:09.387Z,0.47
2024-02-26T04:15:36.927Z,0.50
2024-02-26T04:18:04.944Z,0.63
2024-02-26T04:20:32.549Z,0.50
2024-02-26T04:23:01.468Z,0.93
2024-02-26T04:25:29.827Z,0.50
2024-02-26T04:27:57.408Z,0.43
2024-02-26T04:30:25.206Z,0.70
2024-02-26T04:32:53.052Z,0.70
2024-02-26T04:35:20.797Z,0.50
2024-02-26T04:37:48.419Z,0.60
2024-02-26T04:40:17.486Z,0.80
2024-02-26T04:42:45.043Z,0.88
2024-02-26T04:45:12.682Z,0.70
2024-02-26T04:47:40.429Z,0.65
2024-02-26T04:50:08.646Z,0.75
2024-02-26T04:52:36.220Z,0.80
2024-02-26T04:55:04.547Z,0.65
2024-02-26T04:57:33.519Z,0.80
2024-02-26T05:00:01.204Z,0.70
2024-02-26T05:02:28.799Z,0.73
2024-02-26T05:04:56.296Z,0.65
2024-02-26T05:07:23.919Z,0.60
2024-02-26T05:09:51.699Z,0.55
2024-02-26T05:12:19.272Z,0.80
2024-02-26T05:14:48.153Z,1.00
2024-02-26T05:17:15.965Z,1.33
2024-02-26T05:19:43.570Z,1.25
2024-02-26T05:22:11.338Z,1.10
2024-02-26T05:24:39.532Z,0.70
2024-02-26T05:27:07.093Z,0.70
2024-02-26T05:29:34.697Z,0.43
2024-02-26T05:32:03.615Z,0.77
2024-02-26T05:34:32.065Z,0.68
2024-02-26T05:36:59.611Z,0.57
2024-02-26T05:39:27.194Z,0.60
2024-02-26T05:41:54.742Z,1.00
2024-02-26T05:44:22.434Z,0.70
2024-02-26T05:46:49.938Z,0.63
2024-02-26T05:49:19.037Z,0.75
2024-02-26T05:51:46.679Z,0.77
2024-02-26T05:54:14.985Z,0.57
2024-02-26T05:56:42.643Z,0.80
2024-02-26T05:59:10.217Z,1.00
2024-02-26T06:01:37.756Z,0.65
2024-02-26T06:04:05.457Z,0.60
2024-02-26T06:06:34.474Z,0.63
2024-02-26T06:09:02.162Z,1.00
2024-02-26T06:11:29.786Z,0.90
2024-02-26T06:13:57.369Z,0.47
2024-02-26T06:16:25.145Z,1.30
2024-02-26T06:18:52.790Z,0.70
2024-02-26T06:21:20.391Z,1.00
2024-02-26T06:23:50.349Z,1.10
2024-02-26T06:26:18.032Z,1.50
2024-02-26T06:28:45.794Z,1.33
2024-02-26T06:31:13.336Z,1.42
2024-02-26T06:33:41.012Z,1.13
2024-02-26T06:36:08.963Z,0.95
2024-02-26T06:38:36.522Z,1.65
2024-02-26T06:41:05.711Z,0.70
2024-02-26T06:46:00.592Z,0.65
2024-02-26T06:48:28.286Z,0.30
2024-02-26T06:50:55.910Z,0.10
2024-02-26T06:53:23.465Z,0.00
2024-02-26T06:55:51.439Z,0.00
2024-02-26T06:58:20.322Z,0.00
2024-02-26T07:00:48.129Z,0.10
2024-02-26T07:03:16.329Z,0.10
2024-02-26T07:05:46.239Z,0.10
2024-02-26T07:08:13.959Z,0.00
2024-02-26T07:10:41.511Z,0.10
2024-02-26T07:13:09.060Z,0.00
2024-02-26T07:15:37.994Z,0.00
2024-02-26T07:20:33.402Z,0.00
2024-02-26T07:23:00.993Z,0.00
2024-02-26T07:25:28.835Z,0.08
2024-02-26T07:27:56.385Z,0.00
2024-02-26T07:30:25.445Z,0.03
2024-02-26T07:32:54.456Z,0.10
2024-02-26T07:35:22.093Z,0.10
2024-02-26T07:37:50.079Z,0.00
2024-02-26T07:40:17.798Z,0.00
2024-02-26T07:42:45.382Z,0.00
2024-02-26T07:45:13.039Z,0.22
2024-02-26T07:47:42.190Z,0.00
2024-02-26T07:52:38.698Z,0.25
2024-02-26T07:55:07.985Z,0.10
2024-02-26T07:57:35.863Z,0.10
2024-02-26T08:00:03.641Z,0.20
2024-02-26T08:02:32.227Z,1.73
2024-02-26T08:04:59.802Z,0.28
2024-02-26T08:07:27.363Z,0.00
2024-02-26T08:09:56.333Z,0.08
2024-02-26T08:12:23.918Z,0.25
2024-02-26T08:14:51.493Z,0.43
2024-02-26T08:17:19.313Z,0.00
2024-02-26T08:19:46.865Z,0.13
2024-02-26T08:22:17.336Z,0.30
2024-02-26T08:24:45.309Z,0.45
2024-02-26T08:27:14.420Z,0.10
2024-02-26T08:29:41.959Z,0.40
2024-02-26T08:32:09.469Z,0.35
2024-02-26T08:34:37.042Z,0.15
2024-02-26T08:37:04.757Z,0.10
2024-02-26T08:39:32.383Z,0.10
2024-02-26T08:42:00.028Z,0.00
2024-02-26T08:44:28.979Z,0.03
2024-02-26T08:46:56.485Z,0.10
2024-02-26T08:49:25.074Z,0.20
2024-02-26T08:51:52.816Z,0.10
2024-02-26T08:54:20.359Z,0.00
2024-02-26T08:56:48.058Z,0.00
2024-02-26T08:59:17.444Z,0.13
2024-02-26T09:01:46.316Z,0.55
2024-02-26T09:04:13.860Z,0.17
2024-02-26T09:06:41.454Z,0.00
2024-02-26T09:09:09.010Z,0.55
2024-02-26T09:11:36.593Z,0.03
2024-02-26T09:14:04.696Z,0.50
2024-02-26T09:16:32.445Z,0.38
2024-02-26T09:19:01.499Z,0.00
2024-02-26T09:21:29.088Z,0.10
2024-02-26T09:23:56.880Z,0.05
2024-02-26T09:26:24.463Z,0.00
2024-02-26T09:28:52.054Z,0.03
2024-02-26T09:31:19.866Z,0.10
2024-02-26T09:33:47.770Z,0.20
2024-02-26T09:36:16.845Z,0.03
2024-02-26T09:38:52.413Z,0.15
2024-02-26T09:41:24.442Z,0.00
2024-02-26T09:43:54.595Z,0.10
2024-02-26T09:46:22.199Z,0.10
2024-02-26T09:48:50.144Z,0.03
2024-02-26T09:51:19.332Z,0.15
2024-02-26T09:53:48.796Z,0.05
2024-02-26T09:56:16.905Z,0.30
2024-02-26T09:58:46.739Z,0.10
2024-02-26T10:01:17.066Z,0.00
2024-02-26T10:03:45.954Z,0.10
2024-02-26T10:06:13.895Z,0.00
2024-02-26T10:08:43.914Z,0.10
2024-02-26T10:11:12.272Z,0.40
2024-02-26T10:13:39.826Z,0.50
2024-02-26T10:16:08.007Z,0.52
2024-02-26T10:18:57.431Z,0.00
2024-02-26T10:21:27.214Z,0.13
2024-02-26T10:23:56.446Z,0.00
2024-02-26T10:28:55.118Z,0.00
2024-02-26T10:31:23.717Z,0.00
2024-02-26T10:33:52.066Z,0.20
2024-02-26T10:36:20.119Z,0.32
2024-02-26T10:38:47.742Z,0.00
2024-02-26T10:41:16.955Z,0.40
2024-02-26T10:43:44.828Z,0.17
2024-02-26T10:46:12.936Z,0.10
2024-02-26T10:48:40.984Z,0.10
2024-02-26T10:51:11.618Z,0.00
2024-02-26T10:53:39.520Z,0.55
2024-02-26T10:56:07.524Z,0.08
2024-02-26T10:58:36.828Z,0.00
2024-02-26T11:01:05.740Z,0.13
2024-02-26T11:03:36.160Z,0.00
2024-02-26T11:06:04.066Z,0.00
2024-02-26T11:08:33.358Z,0.00
2024-02-26T11:11:01.556Z,0.28
2024-02-26T11:13:30.859Z,0.00
2024-02-26T11:16:00.803Z,0.52
2024-02-26T11:18:29.132Z,0.00
2024-02-26T11:20:58.625Z,0.43
2024-02-26T11:23:26.324Z,0.73
2024-02-26T11:25:55.443Z,0.10
2024-02-26T11:28:23.901Z,0.00
2024-02-26T11:30:51.789Z,0.08
2024-02-26T11:33:21.465Z,0.00
2024-02-26T11:35:50.470Z,0.40
2024-02-26T11:38:22.741Z,0.00
2024-02-26T11:40:50.369Z,0.00
2024-02-26T11:43:17.934Z,0.32
2024-02-26T11:45:53.164Z,0.13
2024-02-26T11:48:24.302Z,0.00
2024-02-26T11:52:38.713Z,0.00
2024-02-26T11:57:40.344Z,0.25
2024-02-26T12:00:14.755Z,0.00
2024-02-26T12:02:53.269Z,0.00
2024-02-26T12:05:25.148Z,0.20
2024-02-26T12:07:57.091Z,0.10
2024-02-26T12:10:26.614Z,0.10
2024-02-26T12:13:00.662Z,0.32
2024-02-26T12:15:33.870Z,0.00
2024-02-26T12:18:03.159Z,0.00
2024-02-26T12:20:30.904Z,0.08
2024-02-26T12:23:00.034Z,0.00
2024-02-26T12:27:55.324Z,0.00
2024-02-26T12:30:23.056Z,0.00
2024-02-26T12:32:51.851Z,0.10
2024-02-26T12:35:19.861Z,0.10
2024-02-26T12:37:48.468Z,0.05
2024-02-26T12:40:17.375Z,0.08
2024-02-26T12:42:45.117Z,0.30
2024-02-26T12:45:13.634Z,0.10
2024-02-26T12:47:41.743Z,0.25
2024-02-26T12:50:10.335Z,0.00
2024-02-26T12:52:40.686Z,0.00
2024-02-26T12:55:09.658Z,0.00
2024-02-26T12:57:39.769Z,0.00
2024-02-26T13:00:10.449Z,0.00
2024-02-26T13:02:38.268Z,0.20
2024-02-26T13:05:06.463Z,0.25
2024-02-26T13:07:34.351Z,0.03
2024-02-26T13:10:02.301Z,0.00
2024-02-26T13:12:29.910Z,0.00
2024-02-26T13:15:02.312Z,0.10
2024-02-26T13:17:33.299Z,0.10
2024-02-26T13:20:01.030Z,0.00
2024-02-26T13:22:31.180Z,0.00
2024-02-26T13:24:59.134Z,0.35
2024-02-26T13:27:27.122Z,0.00
2024-02-26T13:30:06.447Z,0.10
2024-02-26T13:32:34.620Z,0.10
2024-02-26T13:35:09.626Z,0.20
2024-02-26T13:37:37.219Z,0.98
2024-02-26T13:40:06.881Z,0.32
2024-02-26T13:42:34.905Z,0.00
2024-02-26T13:45:02.783Z,0.05
2024-02-26T13:47:34.281Z,0.00
2024-02-26T13:50:02.869Z,0.08
2024-02-26T13:52:33.072Z,0.00
2024-02-26T13:55:00.783Z,0.00
2024-02-26T13:57:28.985Z,0.10
2024-02-26T13:59:56.811Z,1.90
2024-02-26T14:02:24.369Z,1.10
2024-02-26T14:04:53.292Z,0.80
2024-02-26T14:07:21.124Z,0.82
2024-02-26T14:09:50.564Z,0.93
2024-02-26T14:12:20.759Z,0.93
2024-02-26T14:14:50.776Z,0.90
2024-02-26T14:17:18.327Z,1.48
2024-02-26T14:19:46.081Z,6.80
2024-02-26T14:22:15.658Z,2.70
2024-02-26T14:24:43.420Z,1.17
2024-02-26T14:27:11.881Z,1.65
2024-02-26T14:29:41.018Z,2.85
2024-02-26T14:32:08.776Z,1.08
2024-02-26T14:34:36.347Z,0.80
2024-02-26T14:37:03.948Z,0.90
2024-02-26T14:39:33.248Z,0.70
2024-02-26T14:42:00.894Z,0.70
2024-02-26T14:44:28.590Z,1.02
2024-02-26T14:46:56.191Z,0.80
2024-02-26T14:49:24.028Z,1.17
2024-02-26T14:51:51.608Z,0.55
2024-02-26T14:54:19.178Z,0.80
2024-02-26T14:56:49.238Z,1.05
2024-02-26T14:59:16.844Z,0.73
2024-02-26T15:01:44.627Z,2.15
2024-02-26T15:06:40.920Z,0.73
2024-02-26T15:09:08.905Z,0.85
2024-02-26T15:11:39.762Z,0.77
2024-02-26T15:14:08.891Z,0.70
2024-02-26T15:16:36.401Z,0.70
2024-02-26T15:19:04.580Z,0.77
2024-02-26T15:21:32.276Z,0.80
2024-02-26T15:24:05.336Z,0.90
2024-02-26T15:26:36.231Z,0.73
2024-02-26T15:29:03.870Z,0.60
2024-02-26T15:31:33.271Z,0.70
2024-02-26T15:34:01.161Z,0.50
2024-02-26T15:36:29.144Z,1.10
2024-02-26T15:38:58.203Z,1.35
2024-02-26T15:41:25.805Z,1.10
2024-02-26T15:43:53.439Z,1.10
2024-02-26T15:46:21.186Z,0.80
2024-02-26T15:48:50.168Z,1.02
2024-02-26T15:53:45.438Z,0.80
2024-02-26T15:56:12.957Z,1.00
2024-02-26T15:58:40.457Z,0.80
2024-02-26T16:01:12.728Z,1.33
2024-02-26T16:03:47.604Z,0.90
2024-02-26T16:06:19.688Z,1.30
2024-02-26T16:08:47.263Z,1.50
2024-02-26T16:11:14.876Z,1.90
2024-02-26T16:13:42.486Z,1.58
2024-02-26T16:16:14.001Z,0.90
2024-02-26T16:18:42.742Z,0.70
2024-02-26T16:21:10.817Z,0.60
2024-02-26T16:23:39.991Z,0.60
2024-02-26T16:28:34.920Z,0.50
2024-02-26T16:31:03.007Z,0.57
2024-02-26T16:33:30.610Z,0.55
2024-02-26T16:35:58.312Z,0.80
2024-02-26T16:38:25.854Z,0.52
2024-02-26T16:40:54.837Z,0.68
2024-02-26T16:43:22.883Z,0.70
2024-02-26T16:45:50.451Z,0.80
2024-02-26T16:48:18.149Z,0.80
2024-02-26T16:50:45.743Z,1.20
2024-02-26T16:53:13.292Z,1.23
2024-02-26T16:55:40.831Z,1.00
2024-02-26T16:58:10.543Z,1.35
2024-02-26T17:04:32.486Z,2.97
2024-02-26T17:07:00.118Z,2.20
2024-02-26T17:09:27.630Z,2.13
2024-02-26T17:11:55.631Z,2.15
2024-02-26T17:14:24.873Z,4.18
2024-02-26T17:19:20.332Z,5.00
2024-02-26T17:21:47.893Z,5.32
2024-02-26T17:24:15.472Z,5.28
2024-02-26T17:26:42.988Z,5.43
2024-02-26T17:29:10.958Z,3.10
2024-02-26T17:31:43.297Z,2.20
2024-02-26T17:34:11.481Z,2.22
2024-02-26T17:36:39.315Z,1.73
2024-02-26T17:39:07.831Z,1.50
2024-02-26T17:41:35.511Z,3.25
2024-02-26T17:44:02.990Z,6.03
2024-02-26T17:46:30.550Z,3.20
2024-02-26T17:48:59.508Z,2.08
2024-02-26T17:51:27.075Z,1.50
2024-02-26T17:53:55.067Z,1.77
2024-02-26T17:56:22.674Z,2.38
2024-02-26T17:58:50.597Z,1.92
2024-02-26T18:01:18.068Z,1.88
2024-02-26T18:03:45.600Z,3.88
2024-02-26T18:06:14.541Z,3.05
2024-02-26T18:08:42.071Z,2.88
2024-02-26T18:11:11.335Z,2.85
2024-02-26T18:13:42.443Z,2.25
2024-02-26T18:16:09.995Z,2.38
2024-02-26T18:18:37.577Z,3.05
2024-02-26T18:21:05.424Z,2.30
2024-02-26T18:23:34.265Z,2.53
2024-02-26T18:26:01.775Z,2.22
2024-02-26T18:28:29.354Z,2.10
2024-02-26T18:30:58.577Z,1.83
2024-02-26T18:33:26.312Z,2.42
2024-02-26T18:35:53.975Z,2.30
2024-02-26T18:38:21.453Z,2.80
2024-02-26T18:40:50.627Z,2.60
2024-02-26T18:46:53.027Z,3.00
2024-02-26T18:49:20.657Z,2.53
2024-02-26T18:51:48.178Z,2.90
2024-02-26T18:54:15.894Z,2.85
2024-02-26T18:56:44.830Z,2.88
2024-02-26T18:59:15.859Z,6.20
2024-02-26T19:01:43.618Z,5.28
2024-02-26T19:04:11.435Z,4.15
2024-02-26T19:06:40.116Z,4.30
2024-02-26T19:09:08.052Z,3.63
2024-02-26T19:11:35.576Z,4.15
2024-02-26T19:14:04.775Z,4.60
2024-02-26T19:19:04.340Z,3.97
2024-02-26T19:21:31.903Z,3.30
2024-02-26T19:23:59.395Z,3.00
2024-02-26T19:26:27.897Z,2.97
2024-02-26T19:28:55.334Z,2.78
2024-02-26T19:31:24.173Z,3.03
2024-02-26T19:33:52.314Z,2.22
2024-02-26T19:36:20.088Z,2.60
2024-02-26T19:38:48.008Z,2.42
2024-02-26T19:41:16.137Z,2.55
2024-02-26T19:43:43.869Z,2.55
2024-02-26T19:46:11.395Z,2.25
2024-02-26T19:48:41.073Z,2.65
2024-02-26T19:51:08.916Z,2.00
2024-02-26T19:53:36.524Z,2.20
2024-02-26T19:56:06.850Z,2.22
2024-02-26T19:58:34.652Z,3.17
2024-02-26T20:01:02.487Z,5.68
2024-02-26T20:03:30.103Z,5.60
2024-02-26T20:05:59.131Z,4.47
2024-02-26T20:08:26.632Z,4.93
2024-02-26T20:10:55.218Z,4.65
2024-02-26T20:13:26.777Z,3.50
2024-02-26T20:15:54.285Z,2.88
2024-02-26T20:18:21.970Z,3.35
2024-02-26T20:20:49.553Z,2.63
2024-02-26T20:23:18.732Z,2.72
2024-02-26T20:25:46.573Z,3.38
2024-02-26T20:28:14.187Z,4.80
2024-02-26T20:30:41.924Z,4.05
2024-02-26T20:33:09.570Z,4.82
2024-02-26T20:35:37.570Z,5.85
2024-02-26T20:38:05.280Z,9.57
2024-02-26T20:40:34.062Z,13.07
2024-02-26T20:43:02.999Z,6.05
2024-02-26T20:45:30.563Z,4.22
2024-02-26T20:47:58.415Z,3.67
2024-02-26T20:50:26.056Z,2.97
2024-02-26T20:52:53.502Z,3.00
2024-02-26T20:55:21.594Z,3.22
2024-02-26T20:57:50.582Z,3.10
2024-02-26T21:00:18.493Z,3.30
2024-02-26T21:02:46.022Z,3.00
2024-02-26T21:05:13.795Z,3.25
2024-02-26T21:07:41.640Z,2.80
2024-02-26T21:10:10.013Z,3.83
2024-02-26T21:12:37.658Z,3.40
2024-02-26T21:15:07.109Z,2.78
2024-02-26T21:17:34.747Z,3.28
2024-02-26T21:20:02.549Z,3.08
2024-02-26T21:22:30.126Z,3.30
2024-02-26T21:24:57.582Z,2.85
2024-02-26T21:27:25.093Z,2.83
2024-02-26T21:29:52.595Z,3.08
2024-02-26T21:32:21.399Z,3.03
2024-02-26T21:34:48.949Z,3.38
2024-02-26T21:37:16.476Z,3.55
2024-02-26T21:39:44.302Z,2.67
2024-02-26T21:42:11.774Z,2.75
2024-02-26T21:44:39.262Z,2.20
2024-02-26T21:47:07.007Z,2.35
2024-02-26T21:49:36.302Z,2.80
2024-02-26T21:52:04.121Z,2.65
2024-02-26T21:54:33.828Z,2.90
2024-02-26T21:57:01.663Z,2.63
2024-02-26T21:59:29.254Z,2.80
2024-02-26T22:01:56.792Z,3.60
2024-02-26T22:04:24.382Z,5.22
2024-02-26T22:06:53.340Z,5.65
2024-02-26T22:09:20.897Z,5.13
2024-02-26T22:11:49.111Z,7.82
2024-02-26T22:14:16.688Z,7.10
2024-02-26T22:16:44.216Z,7.80
2024-02-26T22:19:14.571Z,4.82
2024-02-26T22:21:44.144Z,4.07
2024-02-26T22:24:12.986Z,4.50
2024-02-26T22:26:40.446Z,4.57
2024-02-26T22:30:14.769Z,5.03
2024-02-26T22:35:09.945Z,5.03
2024-02-26T22:37:37.542Z,3.35
2024-02-26T22:40:05.413Z,2.83
2024-02-26T22:42:32.885Z,3.40
2024-02-26T22:45:00.443Z,2.70
2024-02-26T22:47:29.320Z,2.30
2024-02-26T22:49:56.795Z,2.00
2024-02-26T22:52:24.291Z,2.28
2024-02-26T22:54:51.735Z,1.83
2024-02-26T22:57:19.259Z,2.03
2024-02-26T22:59:46.720Z,1.85
2024-02-26T23:02:14.239Z,1.65
2024-02-26T23:04:43.067Z,2.20
2024-02-26T23:07:10.661Z,2.20
2024-02-26T23:09:38.333Z,2.20
2024-02-26T23:12:06.183Z,1.60
2024-02-26T23:14:33.882Z,1.75
2024-02-26T23:17:01.396Z,1.70
2024-02-26T23:19:31.592Z,1.88
2024-02-26T23:22:00.452Z,1.75
2024-02-26T23:24:28.522Z,1.60
2024-02-26T23:26:56.060Z,1.92
2024-02-26T23:29:23.526Z,1.52
2024-02-26T23:31:50.955Z,1.50
2024-02-26T23:34:18.526Z,1.50
2024-02-26T23:36:46.309Z,1.85
2024-02-26T23:39:15.276Z,1.60
2024-02-26T23:41:43.898Z,1.73
2024-02-26T23:44:11.479Z,1.80
2024-02-26T23:46:38.977Z,1.77
2024-02-26T23:49:07.430Z,1.50
2024-02-26T23:51:35.136Z,1.50
2024-02-26T23:54:02.613Z,1.20
2024-02-26T23:56:31.398Z,1.23
2024-02-26T23:58:58.815Z,1.23
